Time,TemperatureF,DewpointF,PressureIn,WindDirection,WindDirectionDegrees,WindSpeedMPH,WindSpeedGustMPH,Humidity,HourlyPrecipIn,Conditions,Clouds,dailyrainin,SoftwareType,DateUTC
2013-05-04 00:02:00,76.0,-99.9,-100.00,SSE,168,2.0,5.0,-999,-99.99,,,-99.99,,2013-05-04 07:02:00,
2013-05-04 00:11:00,76.0,-99.9,-100.00,SSE,168,2.0,5.0,-999,-99.99,,,-99.99,,2013-05-04 07:11:00,
2013-05-04 01:52:00,74.0,-99.9,-100.00,NNE,15,6.0,8.0,-999,-99.99,,,-99.99,,2013-05-04 08:52:00,
2013-05-04 02:02:00,75.0,-99.9,-100.00,North,10,7.0,7.0,-999,-99.99,,,-99.99,,2013-05-04 09:02:00,
2013-05-04 02:12:00,75.0,-99.9,-100.00,North,10,7.0,7.0,-999,-99.99,,,-99.99,,2013-05-04 09:12:00,
2013-05-04 02:22:00,75.0,-99.9,-100.00,North,10,7.0,7.0,-999,-99.99,,,-99.99,,2013-05-04 09:22:00,
2013-05-04 02:53:00,76.0,-99.9,-100.00,NNE,26,5.0,5.0,-999,-99.99,,,-99.99,,2013-05-04 09:53:00,
2013-05-04 03:03:00,76.0,-99.9,-100.00,NNE,26,5.0,5.0,-999,-99.99,,,-99.99,,2013-05-04 10:03:00,
2013-05-04 03:12:00,76.0,-99.9,-100.00,NNE,26,5.0,5.0,-999,-99.99,,,-99.99,,2013-05-04 10:12:00,
2013-05-04 03:50:00,72.0,-99.9,-100.00,South,171,6.0,10.0,-999,-99.99,,,-99.99,,2013-05-04 10:50:00,
2013-05-04 03:53:00,76.0,-99.9,-100.00,NNE,25,10.0,14.0,-999,-99.99,,,-99.99,,2013-05-04 10:53:00,
2013-05-04 04:02:00,73.0,-99.9,-100.00,NNE,30,6.0,9.0,-999,-99.99,,,-99.99,,2013-05-04 11:02:00,
2013-05-04 04:12:00,73.0,-99.9,-100.00,NNE,30,6.0,9.0,-999,-99.99,,,-99.99,,2013-05-04 11:12:00,
2013-05-04 04:22:00,73.0,-99.9,-100.00,NNE,30,6.0,9.0,-999,-99.99,,,-99.99,,2013-05-04 11:22:00,
2013-05-04 04:25:00,73.0,-99.9,-100.00,NNE,25,7.0,8.0,-999,-99.99,,,-99.99,,2013-05-04 11:25:00,
2013-05-04 04:32:00,72.0,-99.9,-100.00,South,171,6.0,10.0,-999,-99.99,,,-99.99,,2013-05-04 11:32:00,
2013-05-04 04:47:00,72.0,-99.9,-100.00,South,171,6.0,10.0,-999,-99.99,,,-99.99,,2013-05-04 11:47:00,
2013-05-04 05:15:00,73.0,-99.9,-100.00,NNE,25,7.0,8.0,-999,-99.99,,,-99.99,,2013-05-04 12:15:00,
2013-05-04 06:02:00,72.0,-99.9,-100.00,North,7,5.0,5.0,-999,-99.99,,,-99.99,,2013-05-04 13:02:00,
2013-05-04 06:40:00,69.0,-99.9,-100.00,NNE,33,1.0,6.0,-999,-99.99,,,-99.99,,2013-05-04 13:40:00,
2013-05-04 07:20:00,71.0,-99.9,-100.00,South,181,8.0,11.0,-999,-99.99,,,-99.99,,2013-05-04 14:20:00,
2013-05-04 07:22:00,69.0,-99.9,-100.00,NNE,33,1.0,6.0,-999,-99.99,,,-99.99,,2013-05-04 14:22:00,
2013-05-04 07:52:00,69.0,-99.9,-100.00,SSW,204,7.0,10.0,-999,-99.99,,,-99.99,,2013-05-04 14:52:00,
2013-05-04 08:02:00,71.0,-99.9,-100.00,South,181,8.0,11.0,-999,-99.99,,,-99.99,,2013-05-04 15:02:00,
2013-05-04 08:12:00,71.0,-99.9,-100.00,South,181,8.0,11.0,-999,-99.99,,,-99.99,,2013-05-04 15:12:00,
2013-05-04 09:52:00,78.0,-99.9,-100.00,West,281,4.0,7.0,-999,-99.99,,,-99.99,,2013-05-04 16:52:00,
2013-05-04 10:02:00,78.0,-99.9,-100.00,West,281,4.0,7.0,-999,-99.99,,,-99.99,,2013-05-04 17:02:00,
2013-05-04 10:23:00,80.0,-99.9,-100.00,WSW,245,2.0,6.0,-999,-99.99,,,-99.99,,2013-05-04 17:23:00,
2013-05-04 10:33:00,80.0,-99.9,-100.00,WSW,245,2.0,6.0,-999,-99.99,,,-99.99,,2013-05-04 17:33:00,
2013-05-04 11:01:00,83.0,-99.9,-100.00,SW,219,4.0,5.0,-999,-99.99,,,-99.99,,2013-05-04 18:01:00,
2013-05-04 11:12:00,83.0,-99.9,-100.00,SW,219,4.0,5.0,-999,-99.99,,,-99.99,,2013-05-04 18:12:00,
2013-05-04 11:20:00,85.0,-99.9,-100.00,NNW,328,4.0,6.0,-999,-99.99,,,-99.99,,2013-05-04 18:20:00,
2013-05-04 11:22:00,83.0,-99.9,-100.00,SW,219,4.0,5.0,-999,-99.99,,,-99.99,,2013-05-04 18:22:00,
2013-05-04 11:32:00,83.0,-99.9,-100.00,WNW,295,6.0,7.0,-999,-99.99,,,-99.99,,2013-05-04 18:32:00,
2013-05-04 11:42:00,83.0,-99.9,-100.00,WNW,295,6.0,7.0,-999,-99.99,,,-99.99,,2013-05-04 18:42:00,
2013-05-04 12:02:00,85.0,-99.9,-100.00,NNW,328,4.0,6.0,-999,-99.99,,,-99.99,,2013-05-04 19:02:00,
2013-05-04 12:11:00,85.0,-99.9,-100.00,NNW,328,4.0,6.0,-999,-99.99,,,-99.99,,2013-05-04 19:11:00,
2013-05-04 12:32:00,86.0,-99.9,-100.00,SW,235,5.0,9.0,-999,-99.99,,,-99.99,,2013-05-04 19:32:00,
2013-05-04 12:42:00,86.0,-99.9,-100.00,SW,235,5.0,9.0,-999,-99.99,,,-99.99,,2013-05-04 19:42:00,
2013-05-04 12:50:00,87.0,-99.9,-100.00,South,181,4.0,7.0,-999,-99.99,,,-99.99,,2013-05-04 19:50:00,
2013-05-04 12:52:00,86.0,-99.9,-100.00,SW,235,5.0,9.0,-999,-99.99,,,-99.99,,2013-05-04 19:52:00,
2013-05-04 13:22:00,87.0,-99.9,-100.00,SSW,198,8.0,8.0,-999,-99.99,,,-99.99,,2013-05-04 20:22:00,
2013-05-04 13:32:00,87.0,-99.9,-100.00,South,181,4.0,7.0,-999,-99.99,,,-99.99,,2013-05-04 20:32:00,
2013-05-04 13:42:00,87.0,-99.9,-100.00,South,181,4.0,7.0,-999,-99.99,,,-99.99,,2013-05-04 20:42:00,
2013-05-04 14:02:00,87.0,-99.9,-100.00,SSW,211,6.0,14.0,-999,-99.99,,,-99.99,,2013-05-04 21:02:00,
2013-05-04 14:12:00,87.0,-99.9,-100.00,SSW,211,6.0,14.0,-999,-99.99,,,-99.99,,2013-05-04 21:12:00,
2013-05-04 14:22:00,88.0,-99.9,-100.00,SSW,212,6.0,17.0,-999,-99.99,,,-99.99,,2013-05-04 21:22:00,
2013-05-04 14:33:00,88.0,-99.9,-100.00,SSW,212,6.0,17.0,-999,-99.99,,,-99.99,,2013-05-04 21:33:00,
2013-05-04 14:40:00,90.0,-99.9,-100.00,West,273,7.0,19.0,-999,-99.99,,,-99.99,,2013-05-04 21:40:00,
2013-05-04 15:03:00,90.0,-99.9,-100.00,WSW,250,12.0,19.0,-999,-99.99,,,-99.99,,2013-05-04 22:03:00,
2013-05-04 15:12:00,90.0,-99.9,-100.00,WSW,250,12.0,19.0,-999,-99.99,,,-99.99,,2013-05-04 22:12:00,
2013-05-04 15:22:00,90.0,-99.9,-100.00,West,273,7.0,19.0,-999,-99.99,,,-99.99,,2013-05-04 22:22:00,
2013-05-04 15:33:00,90.0,-99.9,-100.00,West,273,7.0,19.0,-999,-99.99,,,-99.99,,2013-05-04 22:33:00,
2013-05-04 16:32:00,91.0,-99.9,-100.00,West,265,6.0,14.0,-999,-99.99,,,-99.99,,2013-05-04 23:32:00,
2013-05-04 16:43:00,91.0,-99.9,-100.00,West,265,6.0,14.0,-999,-99.99,,,-99.99,,2013-05-04 23:43:00,
2013-05-04 16:52:00,90.0,-99.9,-100.00,WSW,255,10.0,16.0,-999,-99.99,,,-99.99,,2013-05-04 23:52:00,
2013-05-04 17:02:00,90.0,-99.9,-100.00,West,277,11.0,16.0,-999,-99.99,,,-99.99,,2013-05-05 00:02:00,
2013-05-04 17:10:00,90.0,-99.9,-100.00,West,268,7.0,12.0,-999,-99.99,,,-99.99,,2013-05-05 00:10:00,
2013-05-04 17:12:00,90.0,-99.9,-100.00,West,277,11.0,16.0,-999,-99.99,,,-99.99,,2013-05-05 00:12:00,
2013-05-04 17:22:00,90.0,-99.9,-100.00,West,277,11.0,16.0,-999,-99.99,,,-99.99,,2013-05-05 00:22:00,
2013-05-04 17:30:00,90.0,-99.9,-100.00,West,265,14.0,16.0,-999,-99.99,,,-99.99,,2013-05-05 00:30:00,
2013-05-04 17:52:00,90.0,-99.9,-100.00,West,268,7.0,12.0,-999,-99.99,,,-99.99,,2013-05-05 00:52:00,
2013-05-04 18:01:00,90.0,-99.9,-100.00,West,268,7.0,12.0,-999,-99.99,,,-99.99,,2013-05-05 01:01:00,
2013-05-04 18:22:00,90.0,-99.9,-100.00,West,265,14.0,16.0,-999,-99.99,,,-99.99,,2013-05-05 01:22:00,
2013-05-04 18:30:00,86.0,-99.9,-100.00,NNW,331,15.0,18.0,-999,-99.99,,,-99.99,,2013-05-05 01:30:00,
2013-05-04 18:52:00,89.0,-99.9,-100.00,West,270,7.0,13.0,-999,-99.99,,,-99.99,,2013-05-05 01:52:00,
2013-05-04 19:02:00,89.0,-99.9,-100.00,West,270,7.0,13.0,-999,-99.99,,,-99.99,,2013-05-05 02:02:00,
2013-05-04 19:22:00,86.0,-99.9,-100.00,NNW,331,15.0,18.0,-999,-99.99,,,-99.99,,2013-05-05 02:22:00,
2013-05-04 19:30:00,81.0,-99.9,-100.00,NW,321,12.0,18.0,-999,-99.99,,,-99.99,,2013-05-05 02:30:00,
2013-05-04 20:20:00,79.0,-99.9,-100.00,NW,316,14.0,16.0,-999,-99.99,,,-99.99,,2013-05-05 03:20:00,
2013-05-04 20:22:00,81.0,-99.9,-100.00,NW,321,12.0,18.0,-999,-99.99,,,-99.99,,2013-05-05 03:22:00,
2013-05-04 20:53:00,80.0,-99.9,-100.00,NW,318,14.0,23.0,-999,-99.99,,,-99.99,,2013-05-05 03:53:00,
2013-05-04 21:03:00,79.0,-99.9,-100.00,NW,316,14.0,16.0,-999,-99.99,,,-99.99,,2013-05-05 04:03:00,
2013-05-04 21:13:00,79.0,-99.9,-100.00,NW,316,14.0,16.0,-999,-99.99,,,-99.99,,2013-05-05 04:13:00,
2013-05-04 21:40:00,75.0,-99.9,-100.00,NW,319,7.0,14.0,-999,-99.99,,,-99.99,,2013-05-05 04:40:00,
2013-05-04 22:00:00,74.0,-99.9,-100.00,NW,313,8.0,10.0,-999,-99.99,,,-99.99,,2013-05-05 05:00:00,
2013-05-04 22:02:00,76.0,-99.9,-100.00,NW,318,15.0,17.0,-999,-99.99,,,-99.99,,2013-05-05 05:02:00,
2013-05-04 22:12:00,76.0,-99.9,-100.00,NW,318,15.0,17.0,-999,-99.99,,,-99.99,,2013-05-05 05:12:00,
2013-05-04 22:22:00,75.0,-99.9,-100.00,NW,319,7.0,14.0,-999,-99.99,,,-99.99,,2013-05-05 05:22:00,
2013-05-04 22:32:00,75.0,-99.9,-100.00,NW,319,7.0,14.0,-999,-99.99,,,-99.99,,2013-05-05 05:32:00,
2013-05-04 22:50:00,72.0,-99.9,-100.00,NNW,345,0.0,4.0,-999,-99.99,,,-99.99,,2013-05-05 05:50:00,
2013-05-04 22:52:00,74.0,-99.9,-100.00,NW,313,8.0,10.0,-999,-99.99,,,-99.99,,2013-05-05 05:52:00,
2013-05-04 23:22:00,73.0,-99.9,-100.00,NNE,17,6.0,6.0,-999,-99.99,,,-99.99,,2013-05-05 06:22:00,
2013-05-04 23:32:00,72.0,-99.9,-100.00,NNW,345,0.0,4.0,-999,-99.99,,,-99.99,,2013-05-05 06:32:00,
2013-05-04 23:40:00,70.0,-99.9,-100.00,NNW,340,3.0,4.0,-999,-99.99,,,-99.99,,2013-05-05 06:40:00,
2013-05-04 23:42:00,72.0,-99.9,-100.00,NNW,345,0.0,4.0,-999,-99.99,,,-99.99,,2013-05-05 06:42:00,